Time;durP1;ratioP1;P1;durP2;ratioP2;P2;SDS_P1;SDS_P2;PMS_P1;PMS_P2;Temp;Humidity;BMP_temperature;BMP_pressure;BME280_temperature;BME280_humidity;BME280_pressure;Samples;Min_cycle;Max_cycle;Signal;HPM_P1;HPM_P2
2021/12/21 00:00:21;;;;;;;19.40;4.88;;;-0.90;99.90;;;;;;5019001;28;20037;-76
2021/12/21 00:02:51;;;;;;;14.27;3.88;;;-0.90;99.90;;;;;;4998522;28;20022;-76
2021/12/21 00:05:20;;;;;;;21.80;4.43;;;-0.90;99.90;;;;;;5015830;28;20084;-76
2021/12/21 00:07:51;;;;;;;18.27;4.95;;;-0.90;99.90;;;;;;5020250;28;20029;-76
2021/12/21 00:10:19;;;;;;;15.98;4.82;;;-0.90;99.90;;;;;;5001847;28;20124;-76
2021/12/21 00:13:01;;;;;;;18.25;5.55;;;-1.00;99.90;;;;;;5019613;28;20044;-76
2021/12/21 00:15:56;;;;;;;13.70;4.90;;;-1.00;99.90;;;;;;5002156;28;20096;-76
2021/12/21 00:23:32;;;;;;;16.60;5.32;;;-1.20;99.90;;;;;;5020023;28;20026;-76
2021/12/21 00:26:01;;;;;;;13.70;4.53;;;-1.20;99.90;;;;;;5002094;28;20033;-76
2021/12/21 00:28:30;;;;;;;22.27;5.35;;;-1.20;99.90;;;;;;5015188;28;20105;-76
2021/12/21 00:30:56;;;;;;;19.63;5.40;;;-1.20;99.90;;;;;;5001211;28;20028;-76
2021/12/21 00:33:21;;;;;;;16.88;4.53;;;-1.20;99.90;;;;;;5017825;28;20469;-76
2021/12/21 00:35:47;;;;;;;17.05;5.15;;;-1.30;99.90;;;;;;5017930;28;20509;-77
2021/12/21 00:38:13;;;;;;;20.23;5.15;;;-1.30;99.90;;;;;;5019111;28;20117;-77
2021/12/21 00:40:39;;;;;;;15.75;5.60;;;-1.30;99.90;;;;;;5019021;28;20029;-77
2021/12/21 00:43:05;;;;;;;13.65;5.38;;;-1.30;99.90;;;;;;5017970;28;20088;-77
2021/12/21 00:45:30;;;;;;;17.10;5.07;;;-1.30;99.90;;;;;;5018947;28;20037;-77
2021/12/21 00:47:56;;;;;;;16.50;5.55;;;-1.30;99.90;;;;;;5001546;28;20115;-77
2021/12/21 00:50:22;;;;;;;15.75;5.85;;;-1.30;99.90;;;;;;5019036;28;20023;-75
2021/12/21 00:52:52;;;;;;;15.82;4.65;;;-1.30;99.90;;;;;;5018943;28;20494;-76
2021/12/21 00:55:19;;;;;;;16.40;4.55;;;-1.30;99.90;;;;;;5015501;28;20034;-77
2021/12/21 00:57:45;;;;;;;10.43;3.55;;;-1.30;99.90;;;;;;5016187;28;20034;-77
2021/12/21 01:00:14;;;;;;;9.95;3.55;;;-1.30;99.90;;;;;;4997801;28;20061;-76
2021/12/21 01:02:41;;;;;;;13.10;3.83;;;-1.40;99.90;;;;;;4998305;28;20029;-77
2021/12/21 01:05:16;;;;;;;13.32;3.80;;;-1.30;99.90;;;;;;4995111;28;20023;-76
2021/12/21 01:07:45;;;;;;;12.77;3.92;;;-1.30;99.90;;;;;;4995207;28;20014;-76
2021/12/21 01:18:15;;;;;;;18.02;5.03;;;-1.40;99.90;;;;;;4965185;28;20125;-77
2021/12/21 01:20:48;;;;;;;14.25;4.97;;;-1.40;99.90;;;;;;4997710;28;20120;-76
2021/12/21 01:26:02;;;;;;;12.25;5.47;;;-1.40;99.90;;;;;;5015920;28;20029;-76
2021/12/21 01:28:40;;;;;;;15.20;5.15;;;-1.40;99.90;;;;;;5015358;28;20018;-76
2021/12/21 01:31:33;;;;;;;15.20;5.20;;;-1.40;99.90;;;;;;5015232;28;20040;-77
2021/12/21 01:37:14;;;;;;;19.35;5.93;;;-1.40;99.90;;;;;;5015330;28;20038;-77
2021/12/21 01:42:16;;;;;;;11.70;4.22;;;-1.40;99.90;;;;;;5015086;28;19924;-77
2021/12/21 01:50:09;;;;;;;15.13;4.57;;;-1.50;99.90;;;;;;5015384;28;20395;-76
2021/12/21 01:52:35;;;;;;;11.90;3.92;;;-1.50;99.90;;;;;;5013095;28;20034;-77
2021/12/21 01:55:00;;;;;;;10.75;3.40;;;-1.60;99.90;;;;;;5014990;28;20087;-77
2021/12/21 01:57:26;;;;;;;11.75;3.58;;;-1.70;99.90;;;;;;5015077;28;20105;-76
2021/12/21 01:59:51;;;;;;;15.70;4.85;;;-1.70;99.90;;;;;;4997149;28;20033;-75
2021/12/21 02:02:19;;;;;;;11.98;4.28;;;-1.70;99.90;;;;;;4997428;28;20045;-76
2021/12/21 02:04:45;;;;;;;16.83;4.07;;;-1.70;99.90;;;;;;4997269;28;20052;-76
2021/12/21 02:07:11;;;;;;;14.30;3.80;;;-1.70;99.90;;;;;;5012934;28;20433;-76
2021/12/21 02:09:37;;;;;;;14.07;3.72;;;-1.70;99.90;;;;;;4997603;28;20371;-76
2021/12/21 02:12:12;;;;;;;10.30;4.18;;;-1.70;99.90;;;;;;5014101;28;20029;-76
2021/12/21 02:14:38;;;;;;;13.48;3.63;;;-1.70;99.90;;;;;;5015281;28;20109;-76
2021/12/21 02:19:40;;;;;;;10.50;3.35;;;-1.80;99.90;;;;;;5015003;28;20545;-76
2021/12/21 02:22:10;;;;;;;13.48;3.97;;;-1.80;99.90;;;;;;5014810;28;20026;-76
2021/12/21 02:24:49;;;;;;;10.60;3.80;;;-1.80;99.90;;;;;;5014809;28;20371;-76
2021/12/21 02:27:26;;;;;;;17.10;5.45;;;-1.90;99.90;;;;;;5013315;28;20112;-76
2021/12/21 02:29:52;;;;;;;16.15;4.38;;;-1.90;99.90;;;;;;4993714;28;20483;-76
2021/12/21 02:32:18;;;;;;;12.65;2.90;;;-1.80;99.90;;;;;;5006967;28;20231;-76
2021/12/21 02:34:45;;;;;;;14.60;4.18;;;-1.90;99.90;;;;;;4997499;28;20545;-76
2021/12/21 02:37:11;;;;;;;10.23;3.63;;;-1.90;99.90;;;;;;5014661;28;20037;-77
2021/12/21 02:39:37;;;;;;;15.27;3.53;;;-1.90;99.90;;;;;;5014726;28;20088;-76
2021/12/21 02:42:04;;;;;;;10.38;3.55;;;-1.90;99.90;;;;;;5014232;28;20022;-76
2021/12/21 02:44:30;;;;;;;9.73;3.35;;;-1.90;99.90;;;;;;5013437;28;20037;-76
2021/12/21 02:46:55;;;;;;;13.73;3.28;;;-1.90;99.90;;;;;;5014464;28;20040;-76
2021/12/21 02:49:21;;;;;;;16.40;3.70;;;-1.90;99.90;;;;;;4993723;28;20034;-76
2021/12/21 02:51:47;;;;;;;16.05;3.17;;;-1.90;99.90;;;;;;5001040;28;20014;-76
2021/12/21 02:54:14;;;;;;;15.10;3.30;;;-1.90;99.90;;;;;;5014769;28;20033;-76
2021/12/21 02:56:40;;;;;;;10.43;3.47;;;-1.90;99.90;;;;;;5013064;28;20463;-76
2021/12/21 02:59:06;;;;;;;17.17;3.30;;;-2.00;99.90;;;;;;5013793;28;20061;-76
2021/12/21 03:01:31;;;;;;;11.68;2.33;;;-2.00;99.90;;;;;;5012584;28;20033;-76
2021/12/21 03:03:57;;;;;;;11.45;2.65;;;-2.00;99.90;;;;;;5013674;28;20051;-76
2021/12/21 03:09:11;;;;;;;10.35;2.78;;;-2.00;99.90;;;;;;5013519;28;20133;-76
2021/12/21 03:11:56;;;;;;;10.35;2.80;;;-2.00;99.90;;;;;;5013504;28;20386;-77
2021/12/21 03:14:25;;;;;;;12.00;2.60;;;-2.00;99.90;;;;;;5014071;28;20018;-76
2021/12/21 03:16:51;;;;;;;8.85;2.33;;;-2.00;99.90;;;;;;5014378;28;20379;-76
2021/12/21 03:19:17;;;;;;;14.48;3.03;;;-2.10;99.90;;;;;;5014398;28;20029;-75
2021/12/21 03:21:42;;;;;;;8.18;1.60;;;-2.10;99.90;;;;;;5014578;28;20018;-76
2021/12/21 03:24:09;;;;;;;9.20;2.58;;;-2.10;99.90;;;;;;5014291;28;20022;-76
2021/12/21 03:26:36;;;;;;;14.35;2.42;;;-2.10;99.90;;;;;;5014871;28;20029;-76
2021/12/21 03:29:03;;;;;;;8.05;2.63;;;-2.20;99.90;;;;;;5014519;28;20041;-76
2021/12/21 03:31:29;;;;;;;16.63;3.17;;;-2.20;99.90;;;;;;5012901;28;20041;-76
2021/12/21 03:33:55;;;;;;;12.68;2.40;;;-2.20;99.90;;;;;;4996885;28;20038;-76
2021/12/21 03:36:20;;;;;;;11.43;2.78;;;-2.20;99.90;;;;;;5014639;28;20037;-76
2021/12/21 03:38:56;;;;;;;7.82;2.75;;;-2.20;99.90;;;;;;5014318;28;20471;-76
2021/12/21 03:41:22;;;;;;;9.82;3.03;;;-2.20;99.90;;;;;;4996347;28;20022;-76
2021/12/21 03:43:47;;;;;;;5.65;2.28;;;-2.30;99.90;;;;;;5014245;28;20565;-76
2021/12/21 03:46:15;;;;;;;11.15;2.38;;;-2.30;99.90;;;;;;5014474;28;20022;-76
2021/12/21 03:48:44;;;;;;;7.43;2.80;;;-2.40;99.90;;;;;;5014792;28;20018;-76
2021/12/21 03:51:10;;;;;;;16.77;2.58;;;-2.40;99.90;;;;;;5014084;28;20105;-75
2021/12/21 03:53:36;;;;;;;12.68;3.38;;;-2.40;99.90;;;;;;4996412;28;20573;-75
2021/12/21 03:56:17;;;;;;;10.80;3.10;;;-2.50;99.90;;;;;;4996901;28;20022;-75
2021/12/21 03:58:43;;;;;;;10.48;2.85;;;-2.40;99.90;;;;;;5012704;28;20025;-75
2021/12/21 04:01:09;;;;;;;11.15;3.08;;;-2.50;99.90;;;;;;5013695;28;20077;-74
2021/12/21 04:03:36;;;;;;;11.40;2.97;;;-2.40;99.90;;;;;;5013440;28;20033;-76
2021/12/21 04:06:01;;;;;;;12.38;3.25;;;-2.40;99.90;;;;;;5013499;28;20037;-76
2021/12/21 04:08:27;;;;;;;14.80;2.45;;;-2.50;99.90;;;;;;5012234;28;20026;-75
2021/12/21 04:10:52;;;;;;;7.68;3.13;;;-2.50;99.90;;;;;;5013387;28;20034;-76
2021/12/21 04:13:18;;;;;;;11.35;2.45;;;-2.50;99.90;;;;;;4996286;28;20148;-76
2021/12/21 04:15:44;;;;;;;9.10;2.88;;;-2.60;99.90;;;;;;5012201;28;20479;-75
2021/12/21 04:18:11;;;;;;;10.63;2.75;;;-2.60;99.90;;;;;;5012418;28;20564;-75
2021/12/21 04:20:37;;;;;;;9.07;2.60;;;-2.60;99.90;;;;;;5013467;28;20048;-75
2021/12/21 04:23:03;;;;;;;11.18;2.33;;;-2.70;99.90;;;;;;5013460;28;20021;-75
2021/12/21 04:25:29;;;;;;;12.05;2.33;;;-2.80;99.90;;;;;;5013324;28;20109;-75
2021/12/21 04:27:54;;;;;;;19.00;3.58;;;-2.80;99.90;;;;;;5013728;28;20046;-76
2021/12/21 04:30:20;;;;;;;9.63;2.75;;;-2.80;99.90;;;;;;5016127;28;20032;-75
2021/12/21 04:32:46;;;;;;;6.15;2.10;;;-2.80;99.90;;;;;;5017025;28;20034;-75
2021/12/21 04:35:12;;;;;;;10.90;2.65;;;-2.70;99.90;;;;;;5015772;28;20117;-75
2021/12/21 04:37:45;;;;;;;6.85;1.83;;;-2.70;99.90;;;;;;5016864;28;20057;-75
2021/12/21 04:40:16;;;;;;;14.63;4.05;;;-2.70;99.90;;;;;;5015637;28;20594;-75
2021/12/21 04:42:41;;;;;;;5.22;1.80;;;-2.70;99.90;;;;;;5016878;28;20022;-76
2021/12/21 04:45:07;;;;;;;9.40;1.60;;;-2.70;99.90;;;;;;5015607;28;20471;-75
2021/12/21 04:47:33;;;;;;;12.90;2.50;;;-2.70;99.90;;;;;;5015294;28;20084;-75
2021/12/21 04:49:59;;;;;;;9.10;1.98;;;-2.70;99.90;;;;;;5015481;28;20018;-75
2021/12/21 04:52:24;;;;;;;6.25;2.67;;;-2.80;99.90;;;;;;5016934;28;20057;-75
2021/12/21 04:54:50;;;;;;;14.27;2.88;;;-2.80;99.90;;;;;;5016853;28;20025;-75
2021/12/21 04:57:15;;;;;;;16.70;2.88;;;-2.80;99.90;;;;;;5016609;28;20520;-76
2021/12/21 04:59:41;;;;;;;9.68;2.35;;;-2.80;99.90;;;;;;4999055;28;20109;-75
2021/12/21 05:02:06;;;;;;;10.50;2.70;;;-2.80;99.90;;;;;;5016357;28;20497;-75
2021/12/21 05:04:32;;;;;;;5.85;1.80;;;-2.80;99.90;;;;;;5016560;28;20040;-75
2021/12/21 05:06:58;;;;;;;13.48;2.47;;;-2.90;99.90;;;;;;4998809;28;20026;-76
2021/12/21 05:09:29;;;;;;;11.98;2.60;;;-2.90;99.90;;;;;;5016981;28;20426;-76
2021/12/21 05:12:04;;;;;;;10.27;2.70;;;-2.80;99.90;;;;;;5016540;28;20018;-76
2021/12/21 05:14:29;;;;;;;8.75;2.40;;;-2.80;99.90;;;;;;5015256;28;20030;-75
2021/12/21 05:16:55;;;;;;;9.65;2.05;;;-2.80;99.90;;;;;;5014907;28;20026;-74
2021/12/21 05:19:20;;;;;;;7.95;1.50;;;-2.80;99.90;;;;;;4998513;28;20410;-75
2021/12/21 05:21:46;;;;;;;8.52;1.77;;;-2.80;99.90;;;;;;5016104;28;20061;-75
2021/12/21 05:24:11;;;;;;;11.07;2.20;;;-2.80;99.90;;;;;;5016135;28;20025;-75
2021/12/21 05:26:37;;;;;;;23.08;3.78;;;-2.80;99.90;;;;;;4998640;28;20383;-74
2021/12/21 05:29:04;;;;;;;8.15;2.25;;;-2.80;99.90;;;;;;4998501;28;20025;-75
2021/12/21 05:31:29;;;;;;;5.97;2.45;;;-2.80;99.90;;;;;;4998641;28;20026;-75
2021/12/21 05:33:55;;;;;;;8.15;1.95;;;-2.80;99.90;;;;;;4998382;28;20076;-75
2021/12/21 05:36:21;;;;;;;8.13;1.88;;;-2.80;99.90;;;;;;5015810;28;20041;-75
2021/12/21 05:38:51;;;;;;;7.85;2.53;;;-2.80;99.90;;;;;;5014484;28;20026;-75
2021/12/21 05:41:22;;;;;;;19.38;3.53;;;-2.90;99.90;;;;;;4997616;28;20072;-76
2021/12/21 05:43:48;;;;;;;7.38;2.03;;;-2.90;99.90;;;;;;5014312;28;20025;-75
2021/12/21 05:46:14;;;;;;;8.20;2.42;;;-2.90;99.90;;;;;;5016217;28;20025;-75
2021/12/21 05:48:39;;;;;;;10.90;3.33;;;-2.90;99.90;;;;;;5015977;28;20456;-75
2021/12/21 05:51:05;;;;;;;9.18;1.98;;;-2.90;99.90;;;;;;4997751;28;20390;-75
2021/12/21 05:53:30;;;;;;;4.90;1.83;;;-2.90;99.90;;;;;;5015323;28;20065;-75
2021/12/21 05:55:56;;;;;;;12.25;2.05;;;-3.00;99.90;;;;;;5014164;28;20030;-75
2021/12/21 05:58:21;;;;;;;8.77;2.40;;;-3.00;99.90;;;;;;5015349;28;20032;-75
2021/12/21 06:00:47;;;;;;;5.00;1.92;;;-3.00;99.90;;;;;;5014037;28;20501;-75
2021/12/21 06:03:12;;;;;;;10.15;1.85;;;-2.90;99.90;;;;;;5014097;28;20554;-75
2021/12/21 06:05:38;;;;;;;11.45;2.83;;;-2.90;99.90;;;;;;5015766;28;20046;-75
2021/12/21 06:08:04;;;;;;;7.22;2.10;;;-3.00;99.90;;;;;;4997750;28;20160;-75
2021/12/21 06:10:35;;;;;;;7.55;1.92;;;-3.00;99.90;;;;;;5013904;28;20479;-75
2021/12/21 06:26:15;;;;;;;11.10;2.47;;;-3.10;99.90;;;;;;4994857;28;20038;-77
2021/12/21 06:28:42;;;;;;;7.78;1.88;;;-3.10;99.90;;;;;;4995007;28;20475;-78
2021/12/21 06:31:09;;;;;;;16.73;3.00;;;-3.10;99.90;;;;;;5011461;28;20030;-79
2021/12/21 06:33:34;;;;;;;11.98;2.72;;;-3.20;99.90;;;;;;4997203;28;20092;-78
2021/12/21 06:36:01;;;;;;;9.63;3.35;;;-3.20;99.90;;;;;;4996774;28;20026;-78
2021/12/21 06:38:27;;;;;;;6.82;1.75;;;-3.20;99.90;;;;;;4996559;28;20029;-78
2021/12/21 06:40:53;;;;;;;8.05;2.38;;;-3.20;99.90;;;;;;5013809;28;20418;-78
2021/12/21 06:43:19;;;;;;;15.60;3.05;;;-3.20;99.90;;;;;;5015369;28;20018;-79
2021/12/21 06:53:32;;;;;;;8.75;2.58;;;-3.20;99.90;;;;;;5014247;28;20042;-78
2021/12/21 06:55:58;;;;;;;9.90;2.55;;;-3.20;99.90;;;;;;5013583;28;20049;-77
2021/12/21 06:58:23;;;;;;;8.63;2.22;;;-3.20;99.90;;;;;;5015473;28;20018;-76
2021/12/21 07:00:50;;;;;;;13.10;3.45;;;-3.30;99.90;;;;;;5013542;28;20026;-77
2021/12/21 07:03:16;;;;;;;10.20;3.20;;;-3.20;99.90;;;;;;5013797;28;20394;-76
2021/12/21 07:05:41;;;;;;;9.98;2.80;;;-3.20;99.90;;;;;;5015438;28;20056;-76
2021/12/21 07:08:12;;;;;;;11.80;3.42;;;-3.30;99.90;;;;;;5014190;28;20454;-76
2021/12/21 07:10:39;;;;;;;7.47;2.35;;;-3.40;99.90;;;;;;5014382;28;20037;-76
2021/12/21 07:18:34;;;;;;;9.65;2.83;;;-3.50;99.90;;;;;;5015257;28;20037;-77
2021/12/21 07:21:01;;;;;;;12.40;3.05;;;-3.50;99.90;;;;;;5013267;28;20034;-77
2021/12/21 07:23:27;;;;;;;15.55;3.30;;;-3.50;99.90;;;;;;5014388;28;20045;-77
2021/12/21 07:25:53;;;;;;;11.32;2.90;;;-3.50;99.90;;;;;;5014930;28;20026;-77
2021/12/21 07:28:19;;;;;;;15.85;3.88;;;-3.50;99.90;;;;;;5013220;28;20069;-77
2021/12/21 07:30:47;;;;;;;9.80;3.30;;;-3.50;99.90;;;;;;5006410;28;20545;-77
2021/12/21 07:33:13;;;;;;;11.85;3.33;;;-3.50;99.90;;;;;;4985578;28;20025;-75
2021/12/21 07:35:42;;;;;;;11.10;2.50;;;-3.40;99.90;;;;;;5014314;28;20499;-75
2021/12/21 07:38:08;;;;;;;12.18;3.33;;;-3.40;99.90;;;;;;4996804;28;20033;-75
2021/12/21 07:40:33;;;;;;;9.95;3.55;;;-3.40;99.90;;;;;;5014449;28;20029;-75
2021/12/21 07:43:00;;;;;;;10.80;3.28;;;-3.40;99.90;;;;;;4996736;28;20487;-75
2021/12/21 07:45:26;;;;;;;8.65;2.33;;;-3.40;99.90;;;;;;5014486;28;20460;-75
2021/12/21 07:47:52;;;;;;;10.25;2.50;;;-3.40;99.90;;;;;;4996501;28;20049;-75
2021/12/21 07:50:19;;;;;;;13.70;3.42;;;-3.40;99.90;;;;;;5014161;28;20030;-75
2021/12/21 07:52:45;;;;;;;13.48;4.03;;;-3.40;99.90;;;;;;5014192;28;20034;-76
2021/12/21 07:55:11;;;;;;;11.40;2.83;;;-3.30;99.90;;;;;;4996657;28;20594;-76
2021/12/21 07:57:37;;;;;;;8.48;2.83;;;-3.30;99.90;;;;;;5014578;28;20026;-75
2021/12/21 08:00:05;;;;;;;9.00;3.15;;;-3.30;99.90;;;;;;4996592;28;20152;-76
2021/12/21 08:02:32;;;;;;;10.07;3.15;;;-3.20;99.90;;;;;;4996886;28;20439;-76
2021/12/21 08:04:57;;;;;;;16.13;4.78;;;-3.20;99.90;;;;;;5018142;28;20014;-76
2021/12/21 08:07:29;;;;;;;14.25;3.35;;;-3.20;99.90;;;;;;5000262;28;20025;-76
2021/12/21 08:09:55;;;;;;;11.85;4.10;;;-3.20;99.90;;;;;;5018231;28;20066;-76
2021/12/21 08:12:21;;;;;;;11.05;4.10;;;-3.20;99.90;;;;;;5017756;28;20025;-76
2021/12/21 08:14:51;;;;;;;11.13;3.63;;;-3.20;99.90;;;;;;5000128;28;20025;-76
2021/12/21 08:17:19;;;;;;;18.58;4.32;;;-3.10;99.90;;;;;;5000450;28;20041;-76
2021/12/21 08:19:45;;;;;;;11.10;3.13;;;-3.10;99.90;;;;;;5017345;28;20045;-76
2021/12/21 08:22:12;;;;;;;16.65;3.97;;;-3.00;99.90;;;;;;4999828;28;20029;-76
2021/12/21 08:24:38;;;;;;;10.38;3.65;;;-3.00;99.90;;;;;;5017856;28;20445;-76
2021/12/21 08:27:04;;;;;;;10.43;2.97;;;-2.90;99.90;;;;;;5017758;28;20484;-77
2021/12/21 08:29:30;;;;;;;13.45;4.50;;;-2.80;99.90;;;;;;5017586;28;20018;-77
2021/12/21 08:31:55;;;;;;;11.32;4.07;;;-2.80;99.90;;;;;;5017493;28;20364;-76
2021/12/21 08:34:22;;;;;;;21.40;6.28;;;-2.70;99.90;;;;;;5016532;28;20028;-76
2021/12/21 08:36:48;;;;;;;11.45;4.22;;;-2.60;99.90;;;;;;5016251;28;20030;-76
2021/12/21 08:39:16;;;;;;;15.27;4.05;;;-2.60;99.90;;;;;;5017816;28;20471;-77
2021/12/21 08:41:43;;;;;;;17.27;4.28;;;-2.50;99.90;;;;;;5017517;28;20398;-76
2021/12/21 08:44:16;;;;;;;10.57;3.75;;;-2.50;99.90;;;;;;5017067;28;20426;-76
2021/12/21 08:46:42;;;;;;;15.20;4.53;;;-2.40;99.90;;;;;;5015883;28;20025;-76
2021/12/21 08:49:07;;;;;;;14.30;5.28;;;-2.30;99.90;;;;;;4999830;28;20022;-77
2021/12/21 08:51:33;;;;;;;22.83;9.75;;;-2.30;99.90;;;;;;5015876;28;20029;-77
2021/12/21 08:53:58;;;;;;;21.77;6.85;;;-2.30;99.90;;;;;;5016928;28;20109;-77
2021/12/21 08:56:24;;;;;;;18.27;6.35;;;-2.20;99.90;;;;;;4999208;28;20057;-77
2021/12/21 08:58:50;;;;;;;13.85;5.00;;;-2.10;99.90;;;;;;4999328;28;20022;-77
2021/12/21 09:01:17;;;;;;;16.20;5.40;;;-2.10;99.90;;;;;;5016962;28;20053;-77
2021/12/21 09:03:43;;;;;;;13.25;4.70;;;-2.00;99.90;;;;;;4999461;28;20390;-76
2021/12/21 09:06:08;;;;;;;19.67;5.72;;;-1.90;99.90;;;;;;4999460;28;20025;-77
2021/12/21 09:08:34;;;;;;;17.20;5.28;;;-1.80;99.90;;;;;;5016891;28;20085;-77
2021/12/21 09:11:03;;;;;;;15.88;5.68;;;-1.60;99.90;;;;;;5016823;28;20104;-77
2021/12/21 09:13:30;;;;;;;13.45;5.18;;;-1.50;99.90;;;;;;4999079;28;20483;-77
2021/12/21 09:15:56;;;;;;;16.55;5.82;;;-1.40;99.90;;;;;;5015736;28;20030;-77
2021/12/21 09:18:21;;;;;;;13.98;4.43;;;-1.30;99.90;;;;;;5016643;28;20029;-77
2021/12/21 09:20:47;;;;;;;15.60;6.10;;;-1.20;99.90;;;;;;5016336;28;20067;-77
2021/12/21 09:23:14;;;;;;;16.88;4.80;;;-1.10;99.90;;;;;;5016809;28;20061;-77
2021/12/21 09:25:40;;;;;;;17.73;5.53;;;-1.00;99.90;;;;;;5014818;28;20018;-77
2021/12/21 09:28:06;;;;;;;12.23;4.78;;;-0.90;99.90;;;;;;5016250;28;20475;-77
2021/12/21 09:30:32;;;;;;;14.32;4.50;;;-0.90;99.90;;;;;;5016432;28;20022;-77
2021/12/21 09:32:59;;;;;;;16.38;5.82;;;-0.70;99.90;;;;;;5015139;28;20025;-77
2021/12/21 09:35:26;;;;;;;14.48;4.80;;;-0.60;99.90;;;;;;5014927;28;20030;-77
2021/12/21 09:37:52;;;;;;;11.77;4.35;;;-0.50;99.90;;;;;;5016054;28;20030;-77
2021/12/21 09:40:28;;;;;;;17.83;4.60;;;-0.40;99.90;;;;;;5014606;28;20032;-77
2021/12/21 09:42:54;;;;;;;16.65;4.70;;;-0.30;99.90;;;;;;5015186;28;20076;-77
2021/12/21 09:45:20;;;;;;;16.10;4.20;;;-0.10;99.90;;;;;;5014770;28;20030;-77
2021/12/21 09:47:49;;;;;;;11.38;4.50;;;-0.10;99.90;;;;;;5016126;28;20471;-77
2021/12/21 09:50:16;;;;;;;20.10;5.25;;;0.00;99.90;;;;;;5015687;28;20022;-77
2021/12/21 09:52:42;;;;;;;10.35;4.35;;;0.10;99.90;;;;;;4998248;28;20605;-77
2021/12/21 09:55:12;;;;;;;13.82;4.13;;;0.20;99.90;;;;;;5015953;28;20061;-77
2021/12/21 09:57:38;;;;;;;15.07;4.85;;;0.30;99.90;;;;;;5015720;28;20032;-77
2021/12/21 10:00:07;;;;;;;14.75;4.43;;;0.40;99.90;;;;;;5015330;28;20104;-77
2021/12/21 10:02:35;;;;;;;13.23;4.05;;;0.50;99.90;;;;;;5004057;28;20018;-77
2021/12/21 10:05:04;;;;;;;13.13;4.57;;;0.60;99.90;;;;;;4996152;28;20022;-77
2021/12/21 10:07:30;;;;;;;8.70;3.67;;;0.70;99.90;;;;;;4996013;28;20498;-77
2021/12/21 10:10:13;;;;;;;14.90;4.30;;;0.80;99.90;;;;;;4978323;28;20026;-77
2021/12/21 10:12:41;;;;;;;18.75;3.92;;;0.80;99.90;;;;;;4978887;28;20042;-77
2021/12/21 10:15:20;;;;;;;14.13;4.10;;;0.90;99.90;;;;;;4978414;28;20018;-77
2021/12/21 10:17:58;;;;;;;15.40;4.38;;;1.00;99.90;;;;;;4996407;28;20364;-77
2021/12/21 10:20:33;;;;;;;14.03;3.50;;;1.10;99.90;;;;;;4995987;28;20056;-77
2021/12/21 10:22:58;;;;;;;12.43;3.88;;;1.20;99.90;;;;;;4978381;28;20031;-77
2021/12/21 10:25:25;;;;;;;12.98;4.50;;;1.30;99.90;;;;;;4978862;28;20133;-77
2021/12/21 10:27:51;;;;;;;12.50;4.07;;;1.40;99.90;;;;;;4994901;28;20030;-77
2021/12/21 10:30:17;;;;;;;11.30;3.92;;;1.50;99.90;;;;;;4995980;28;20391;-77
2021/12/21 10:32:53;;;;;;;15.70;4.00;;;1.60;99.90;;;;;;4995898;28;20041;-77
2021/12/21 10:35:19;;;;;;;13.98;4.35;;;1.70;99.90;;;;;;4995706;28;20037;-77
2021/12/21 10:37:49;;;;;;;11.35;4.72;;;1.70;99.90;;;;;;4995817;28;20034;-77
2021/12/21 10:40:26;;;;;;;11.85;4.10;;;1.90;99.90;;;;;;4996087;28;20030;-77
2021/12/21 10:43:07;;;;;;;13.43;5.00;;;1.90;99.90;;;;;;4995574;28;20475;-78
2021/12/21 10:45:34;;;;;;;11.45;4.07;;;2.00;99.90;;;;;;4978499;28;20336;-77
2021/12/21 10:48:02;;;;;;;13.77;4.18;;;2.10;99.90;;;;;;4977954;28;20022;-77
2021/12/21 10:50:32;;;;;;;8.88;3.13;;;2.20;99.90;;;;;;4978078;28;20395;-78
2021/12/21 10:52:58;;;;;;;13.90;3.95;;;2.20;99.90;;;;;;4978180;28;20379;-77
2021/12/21 10:55:32;;;;;;;12.20;4.53;;;2.30;99.90;;;;;;4977936;28;20015;-77
2021/12/21 10:58:12;;;;;;;13.30;3.88;;;2.40;99.90;;;;;;4995213;28;20041;-79
2021/12/21 11:00:40;;;;;;;12.85;4.15;;;2.50;99.90;;;;;;4977793;28;20030;-77
2021/12/21 11:03:06;;;;;;;17.08;4.55;;;2.60;99.90;;;;;;4977677;28;20015;-78
2021/12/21 11:05:31;;;;;;;13.65;4.05;;;2.60;99.90;;;;;;4977664;28;20022;-78
2021/12/21 11:08:07;;;;;;;20.40;5.15;;;2.60;99.90;;;;;;4978302;28;20018;-77
2021/12/21 11:10:35;;;;;;;14.52;4.18;;;2.70;99.90;;;;;;4977477;28;20113;-79
2021/12/21 11:13:01;;;;;;;;;;;2.80;99.90;;;;;;4977960;28;20026;-78
2021/12/21 11:15:36;;;;;;;15.88;4.35;;;2.90;99.90;;;;;;4977539;28;19912;-77
2021/12/21 11:18:12;;;;;;;15.63;4.40;;;2.90;99.90;;;;;;4995310;28;20026;-77
2021/12/21 11:20:38;;;;;;;16.52;5.13;;;2.90;99.90;;;;;;4978212;28;20031;-77
2021/12/21 11:23:05;;;;;;;12.40;4.22;;;3.00;99.90;;;;;;4978239;28;20384;-77
2021/12/21 11:25:32;;;;;;;17.40;5.15;;;3.10;99.90;;;;;;4995538;28;20031;-77
2021/12/21 11:28:00;;;;;;;18.70;4.63;;;3.10;99.90;;;;;;4978240;28;20022;-77
2021/12/21 11:30:26;;;;;;;13.20;4.38;;;3.20;99.90;;;;;;4980389;28;20023;-77
2021/12/21 11:32:53;;;;;;;15.48;4.68;;;3.20;99.90;;;;;;5013900;28;20018;-77
2021/12/21 11:37:51;;;;;;;20.63;4.88;;;3.30;99.90;;;;;;5014941;28;20034;-77
2021/12/21 11:40:19;;;;;;;16.50;4.65;;;3.30;99.90;;;;;;5013591;28;20081;-77
2021/12/21 11:42:51;;;;;;;13.82;3.70;;;3.40;99.90;;;;;;5015397;28;20084;-77
2021/12/21 11:45:53;;;;;;;14.07;4.78;;;3.50;99.90;;;;;;4997263;28;20115;-78
2021/12/21 11:48:24;;;;;;;19.55;4.75;;;3.60;99.90;;;;;;4977148;28;20036;-77
2021/12/21 11:50:50;;;;;;;13.93;3.92;;;3.70;99.90;;;;;;5015111;28;20038;-78
2021/12/21 11:53:18;;;;;;;14.23;4.10;;;4.40;99.90;;;;;;5014573;28;20034;-78
2021/12/21 11:55:48;;;;;;;18.23;4.07;;;3.80;99.90;;;;;;5014959;28;20033;-77
2021/12/21 11:58:19;;;;;;;16.15;4.40;;;3.90;99.90;;;;;;5013183;28;20117;-78
2021/12/21 12:00:49;;;;;;;17.58;5.10;;;3.90;99.90;;;;;;5012964;28;20036;-78
2021/12/21 12:03:20;;;;;;;14.77;4.43;;;4.00;99.90;;;;;;5015040;28;20036;-77
2021/12/21 12:06:11;;;;;;;12.77;3.72;;;4.10;99.90;;;;;;5014954;28;20434;-78
2021/12/21 12:08:40;;;;;;;13.98;4.35;;;4.10;99.90;;;;;;5013527;28;20033;-78
2021/12/21 12:11:06;;;;;;;13.80;4.75;;;4.20;99.90;;;;;;4997250;28;20478;-78
2021/12/21 12:13:40;;;;;;;17.20;4.07;;;4.30;99.90;;;;;;5013306;28;20129;-78
2021/12/21 12:16:09;;;;;;;10.63;3.45;;;4.40;99.90;;;;;;5013234;28;20032;-78
2021/12/21 12:18:36;;;;;;;;;;;4.40;99.90;;;;;;5013927;28;20026;-77
2021/12/21 12:21:25;;;;;;;10.45;3.30;;;4.50;99.90;;;;;;4996506;28;19954;-79
2021/12/21 12:23:58;;;;;;;13.25;3.28;;;4.60;99.90;;;;;;5013956;28;20029;-78
2021/12/21 12:26:32;;;;;;;12.45;3.53;;;4.70;99.90;;;;;;5012643;28;20032;-78
2021/12/21 12:29:14;;;;;;;14.88;3.55;;;4.80;99.90;;;;;;5013631;28;20036;-78
2021/12/21 12:31:45;;;;;;;15.88;3.70;;;4.80;99.90;;;;;;5014005;28;20109;-78
2021/12/21 12:34:22;;;;;;;8.98;3.15;;;4.90;99.90;;;;;;5012761;28;20026;-78
2021/12/21 12:36:51;;;;;;;14.02;3.15;;;5.00;99.90;;;;;;5012515;28;20033;-78
2021/12/21 12:39:34;;;;;;;10.23;3.38;;;5.10;99.90;;;;;;5013813;28;20148;-78
2021/12/21 12:42:09;;;;;;;11.73;3.47;;;5.10;99.90;;;;;;5012552;28;20033;-78
2021/12/21 12:44:38;;;;;;;10.43;2.90;;;5.20;99.90;;;;;;5013975;28;20018;-78
2021/12/21 12:47:06;;;;;;;8.23;2.38;;;5.20;99.90;;;;;;5013799;28;20136;-78
2021/12/21 12:49:35;;;;;;;8.40;2.95;;;5.30;99.90;;;;;;5014611;28;20030;-78
2021/12/21 12:52:06;;;;;;;6.93;3.00;;;5.40;99.90;;;;;;5015874;28;20080;-78
2021/12/21 12:54:43;;;;;;;7.88;2.50;;;5.40;99.90;;;;;;4999399;28;20165;-78
2021/12/21 12:57:10;;;;;;;9.77;2.58;;;5.50;99.90;;;;;;5000040;28;20021;-78
2021/12/21 12:59:37;;;;;;;17.27;2.78;;;5.60;99.90;;;;;;5016931;28;20030;-78
2021/12/21 13:02:09;;;;;;;9.60;1.83;;;5.60;99.90;;;;;;4999007;28;20034;-78
2021/12/21 13:04:37;;;;;;;8.77;1.58;;;5.70;99.90;;;;;;4999254;28;20030;-78
2021/12/21 13:07:03;;;;;;;9.43;2.03;;;5.70;99.90;;;;;;5017098;28;20014;-78
2021/12/21 13:09:32;;;;;;;10.68;1.20;;;5.80;99.90;;;;;;5015680;28;20394;-78
2021/12/21 13:11:57;;;;;;;2.65;0.80;;;5.80;99.90;;;;;;5016777;28;20049;-78
2021/12/21 13:14:23;;;;;;;7.88;1.80;;;5.90;99.90;;;;;;5015237;28;20061;-78
2021/12/21 13:16:49;;;;;;;7.65;1.67;;;5.90;99.90;;;;;;5015406;28;20068;-78
2021/12/21 13:19:16;;;;;;;6.30;1.27;;;6.00;99.90;;;;;;5015275;28;20033;-79
2021/12/21 13:21:58;;;;;;;5.38;1.02;;;6.10;99.90;;;;;;5016237;28;20026;-78
2021/12/21 13:24:31;;;;;;;10.27;1.13;;;6.10;99.90;;;;;;5016808;28;20017;-78
2021/12/21 13:27:02;;;;;;;5.18;1.33;;;6.20;99.90;;;;;;5015926;28;20018;-78
2021/12/21 13:29:30;;;;;;;6.65;0.75;;;6.30;99.90;;;;;;5016689;28;20105;-77
2021/12/21 13:31:58;;;;;;;3.72;0.80;;;6.30;99.90;;;;;;5015533;28;20025;-77
2021/12/21 13:34:26;;;;;;;3.38;1.00;;;6.30;99.90;;;;;;5016666;28;20036;-77
2021/12/21 13:36:57;;;;;;;7.72;1.27;;;6.20;99.90;;;;;;4998919;28;20033;-77
2021/12/21 13:39:34;;;;;;;5.25;0.90;;;6.10;99.90;;;;;;5016417;28;20029;-78
2021/12/21 13:42:05;;;;;;;9.50;2.60;;;5.90;99.90;;;;;;5016083;28;20049;-78
2021/12/21 13:44:34;;;;;;;21.73;3.08;;;5.80;99.90;;;;;;5016545;28;20092;-78
2021/12/21 13:47:04;;;;;;;;;;;5.60;99.90;;;;;;4999121;28;20043;-78
2021/12/21 13:49:30;;;;;;;9.57;2.20;;;5.50;99.90;;;;;;5017422;28;19906;-77